Time;durP1;ratioP1;P1;durP2;ratioP2;P2;SDS_P1;SDS_P2;PMS_P1;PMS_P2;Temp;Humidity;BMP_temperature;BMP_pressure;BME280_temperature;BME280_humidity;BME280_pressure;Samples;Min_cycle;Max_cycle;Signal;HPM_P1;HPM_P2
2024/02/04 00:00:23;;;;;;;2.58;1.60;;;23.70;52.70;;;;;;6145576;28;81026;-67
2024/02/04 00:03:24;;;;;;;1.88;1.48;;;23.70;52.60;;;;;;6154251;28;80258;-63
2024/02/04 00:06:24;;;;;;;1.98;1.38;;;23.70;52.60;;;;;;6154354;28;82790;-66
2024/02/04 00:09:28;;;;;;;2.13;1.55;;;23.70;53.10;;;;;;6155008;28;80367;-65
2024/02/04 00:12:28;;;;;;;3.60;1.73;;;23.70;52.80;;;;;;6153896;28;80659;-65
2024/02/04 00:15:29;;;;;;;2.25;1.20;;;23.70;52.60;;;;;;6153184;28;81065;-51
2024/02/04 00:18:30;;;;;;;2.53;1.52;;;23.70;52.70;;;;;;6140568;28;83274;-51
2024/02/04 00:21:30;;;;;;;1.58;1.30;;;23.70;52.60;;;;;;6155334;28;80603;-47
2024/02/04 00:24:31;;;;;;;1.50;1.20;;;23.70;52.40;;;;;;6155087;28;81599;-48
2024/02/04 00:27:31;;;;;;;1.60;1.05;;;23.70;52.70;;;;;;6144530;28;80627;-48
2024/02/04 00:30:32;;;;;;;2.42;1.50;;;23.70;52.40;;;;;;6143518;28;80390;-47
2024/02/04 00:33:32;;;;;;;2.42;1.30;;;23.70;52.50;;;;;;6151096;28;81024;-46
2024/02/04 00:36:33;;;;;;;1.35;1.05;;;23.70;52.40;;;;;;6154244;28;81606;-49
2024/02/04 00:39:33;;;;;;;1.35;1.10;;;23.70;53.00;;;;;;6155322;28;80548;-48
2024/02/04 00:42:34;;;;;;;3.13;1.23;;;23.70;52.70;;;;;;6154257;28;83166;-46
2024/02/04 00:45:34;;;;;;;3.05;1.33;;;23.70;52.90;;;;;;6155197;28;80204;-46
2024/02/04 00:48:35;;;;;;;2.25;1.30;;;23.70;52.80;;;;;;6151079;28;82919;-47
2024/02/04 00:51:36;;;;;;;2.42;1.38;;;23.70;52.30;;;;;;6154036;28;80445;-48
2024/02/04 00:54:36;;;;;;;1.70;1.13;;;23.70;52.20;;;;;;6147431;28;80560;-53
2024/02/04 00:57:37;;;;;;;2.50;1.50;;;23.60;52.00;;;;;;6151373;28;82394;-52
2024/02/04 01:00:38;;;;;;;2.58;1.42;;;23.60;52.00;;;;;;6155119;28;81270;-53
2024/02/04 01:03:38;;;;;;;2.35;1.58;;;23.70;52.00;;;;;;6155846;28;80666;-54
2024/02/04 01:06:39;;;;;;;1.63;1.20;;;23.70;52.50;;;;;;6154458;28;80561;-54
2024/02/04 01:09:39;;;;;;;1.77;1.35;;;23.70;52.00;;;;;;6153910;28;80608;-55
2024/02/04 01:12:40;;;;;;;2.22;1.30;;;23.70;52.10;;;;;;6152475;28;82963;-52
2024/02/04 01:15:40;;;;;;;1.58;1.23;;;23.70;52.00;;;;;;6152909;28;81689;-46
2024/02/04 01:18:40;;;;;;;1.55;1.05;;;23.70;52.00;;;;;;6154163;28;80417;-47
2024/02/04 01:21:41;;;;;;;2.05;1.20;;;23.70;52.20;;;;;;6152739;28;80954;-48
2024/02/04 01:24:42;;;;;;;2.15;1.13;;;23.70;51.80;;;;;;6151350;28;83278;-49
2024/02/04 01:27:42;;;;;;;1.77;1.10;;;23.70;51.80;;;;;;6154547;28;80084;-48
2024/02/04 01:30:43;;;;;;;1.40;1.15;;;23.70;51.60;;;;;;6148098;28;80867;-47
2024/02/04 01:33:43;;;;;;;1.52;1.10;;;23.70;51.70;;;;;;6149972;28;81308;-51
2024/02/04 01:36:44;;;;;;;1.35;1.08;;;23.70;51.60;;;;;;6153378;28;80333;-51
2024/02/04 01:39:45;;;;;;;1.42;1.10;;;23.70;51.30;;;;;;6152942;28;81600;-48
2024/02/04 01:42:45;;;;;;;1.52;1.10;;;23.70;51.40;;;;;;6152837;28;80232;-47
2024/02/04 01:45:46;;;;;;;1.50;1.10;;;23.70;51.40;;;;;;6143043;28;81144;-49
2024/02/04 01:48:46;;;;;;;1.55;1.20;;;23.70;51.20;;;;;;6151234;28;82894;-50
2024/02/04 01:51:47;;;;;;;2.35;1.30;;;23.60;51.20;;;;;;6137399;28;81288;-48
2024/02/04 01:54:47;;;;;;;1.40;1.17;;;23.60;51.20;;;;;;6143712;28;83557;-48
2024/02/04 01:57:49;;;;;;;2.03;1.30;;;23.70;51.40;;;;;;6146969;28;83345;-47
2024/02/04 02:00:50;;;;;;;1.52;1.40;;;23.70;51.20;;;;;;6148140;28;82161;-46
2024/02/04 02:03:51;;;;;;;2.17;1.30;;;23.70;51.10;;;;;;6149978;28;81426;-49
2024/02/04 02:06:52;;;;;;;1.95;1.10;;;23.70;51.00;;;;;;6150688;28;80451;-55
2024/02/04 02:09:52;;;;;;;1.50;1.00;;;23.70;51.20;;;;;;6142832;28;81834;-52
2024/02/04 02:12:52;;;;;;;1.80;1.40;;;23.70;51.60;;;;;;6149705;28;80383;-54
2024/02/04 02:15:54;;;;;;;1.50;1.23;;;23.60;51.30;;;;;;6144758;28;80803;-53
2024/02/04 02:18:54;;;;;;;2.60;1.55;;;23.70;51.30;;;;;;6147961;28;80622;-55
2024/02/04 02:21:55;;;;;;;1.67;1.10;;;23.70;51.10;;;;;;6150757;28;82279;-56
2024/02/04 02:24:56;;;;;;;1.55;1.10;;;23.70;51.10;;;;;;6138094;28;83339;-52
2024/02/04 02:27:56;;;;;;;1.70;1.10;;;23.70;51.40;;;;;;6151108;28;82078;-48
2024/02/04 02:30:57;;;;;;;2.47;1.10;;;23.70;51.10;;;;;;6152706;28;80572;-50
2024/02/04 02:33:57;;;;;;;1.20;1.10;;;23.70;51.30;;;;;;6151934;28;81066;-51
2024/02/04 02:36:58;;;;;;;1.40;1.27;;;23.70;51.10;;;;;;6151915;28;81041;-52
2024/02/04 02:39:58;;;;;;;2.00;1.23;;;23.70;51.30;;;;;;6152078;28;80574;-49
2024/02/04 02:42:59;;;;;;;1.08;0.90;;;23.70;51.00;;;;;;6152140;28;80609;-68
2024/02/04 02:45:59;;;;;;;2.50;1.20;;;23.70;51.20;;;;;;6151036;28;80587;-68
2024/02/04 02:49:00;;;;;;;2.25;1.13;;;23.70;51.30;;;;;;6139286;28;81173;-68
2024/02/04 02:52:00;;;;;;;1.38;1.08;;;23.70;51.00;;;;;;6152531;28;80259;-68
2024/02/04 02:55:01;;;;;;;1.55;1.10;;;23.70;50.90;;;;;;6153090;28;81502;-69
2024/02/04 02:58:01;;;;;;;1.48;1.15;;;23.60;50.80;;;;;;6149152;28;81939;-69
2024/02/04 03:01:02;;;;;;;1.33;1.23;;;23.70;50.70;;;;;;6152026;28;81961;-61
2024/02/04 03:04:03;;;;;;;1.65;1.00;;;23.60;50.90;;;;;;6146957;28;82140;-60
2024/02/04 03:07:04;;;;;;;2.58;1.17;;;23.70;50.90;;;;;;6150460;28;81636;-60
2024/02/04 03:10:04;;;;;;;1.20;1.10;;;23.70;50.90;;;;;;6151017;28;83402;-59
2024/02/04 03:13:05;;;;;;;1.38;1.15;;;23.60;50.90;;;;;;6151627;28;80592;-59
2024/02/04 03:16:06;;;;;;;1.30;0.98;;;23.70;50.80;;;;;;6151174;28;80619;-60
2024/02/04 03:19:06;;;;;;;1.65;1.00;;;23.60;50.70;;;;;;6154869;28;82276;-54
2024/02/04 03:22:07;;;;;;;1.33;1.00;;;23.60;50.60;;;;;;6151355;28;87005;-50
2024/02/04 03:25:07;;;;;;;1.13;0.82;;;23.60;50.50;;;;;;6166096;28;83390;-54
2024/02/04 03:28:08;;;;;;;3.55;1.02;;;23.60;50.70;;;;;;6163820;28;82707;-52
2024/02/04 03:31:09;;;;;;;1.33;1.17;;;23.60;50.70;;;;;;6142623;28;83091;-55
2024/02/04 03:34:09;;;;;;;1.35;0.90;;;23.60;50.70;;;;;;6156883;28;80285;-52
2024/02/04 03:37:10;;;;;;;1.45;1.00;;;23.60;50.70;;;;;;6135807;28;83163;-54
2024/02/04 03:40:11;;;;;;;1.35;1.00;;;23.60;50.70;;;;;;6161226;28;82619;-50
2024/02/04 03:43:11;;;;;;;1.75;0.82;;;23.60;50.60;;;;;;6155979;28;81313;-50
2024/02/04 03:46:12;;;;;;;1.80;1.10;;;23.60;50.50;;;;;;6152608;28;80524;-50
2024/02/04 03:49:12;;;;;;;1.05;0.80;;;23.60;50.40;;;;;;6156470;28;80477;-55
2024/02/04 03:52:13;;;;;;;0.90;0.80;;;23.60;50.80;;;;;;6167717;28;81326;-53
2024/02/04 03:55:13;;;;;;;2.05;0.98;;;23.60;50.80;;;;;;6172013;28;80650;-56
2024/02/04 03:58:14;;;;;;;1.13;0.80;;;23.60;50.70;;;;;;6148123;28;81591;-55
2024/02/04 04:01:14;;;;;;;1.20;0.93;;;23.60;50.70;;;;;;6151916;28;81848;-54
2024/02/04 04:04:15;;;;;;;0.77;0.77;;;23.60;50.40;;;;;;6145840;28;80465;-54
2024/02/04 04:07:15;;;;;;;0.80;0.70;;;23.60;50.60;;;;;;6152044;28;80404;-52
2024/02/04 04:10:16;;;;;;;1.08;0.98;;;23.60;50.40;;;;;;6169838;28;80286;-54
2024/02/04 04:13:16;;;;;;;1.15;0.80;;;23.60;50.60;;;;;;6162575;28;81498;-55
2024/02/04 04:16:17;;;;;;;1.77;0.90;;;23.60;50.60;;;;;;6153897;28;82837;-54
2024/02/04 04:19:17;;;;;;;0.80;0.70;;;23.60;50.40;;;;;;6155771;28;80484;-55
2024/02/04 04:22:18;;;;;;;1.40;0.77;;;23.60;50.20;;;;;;6156434;28;80882;-53
2024/02/04 04:25:18;;;;;;;0.77;0.63;;;23.60;50.10;;;;;;6155643;28;80565;-53
2024/02/04 04:28:19;;;;;;;1.30;1.02;;;23.60;50.20;;;;;;6153885;28;80735;-56
2024/02/04 04:31:19;;;;;;;1.10;0.80;;;23.60;50.00;;;;;;6152091;28;80451;-55
2024/02/04 04:34:20;;;;;;;2.30;0.73;;;23.60;50.00;;;;;;6153163;28;80984;-69
2024/02/04 04:37:20;;;;;;;0.65;0.60;;;23.60;49.90;;;;;;6153645;28;81449;-70
2024/02/04 04:40:21;;;;;;;0.82;0.80;;;23.70;49.70;;;;;;6143573;28;82177;-67
2024/02/04 04:43:21;;;;;;;0.93;0.70;;;23.70;49.70;;;;;;6154498;28;81545;-70
2024/02/04 04:46:22;;;;;;;1.25;0.82;;;23.70;49.70;;;;;;6143834;28;87527;-69
2024/02/04 04:49:22;;;;;;;0.85;0.80;;;23.70;49.60;;;;;;6148574;28;80779;-70
2024/02/04 04:52:23;;;;;;;0.70;0.60;;;23.70;49.50;;;;;;6156396;28;80384;-70
2024/02/04 04:55:23;;;;;;;1.75;0.80;;;23.80;49.40;;;;;;6154872;28;80473;-70
2024/02/04 04:58:24;;;;;;;1.95;0.80;;;23.80;49.40;;;;;;6153586;28;82451;-69
2024/02/04 05:01:24;;;;;;;0.98;0.50;;;23.80;49.40;;;;;;6153741;28;80566;-67
2024/02/04 05:04:25;;;;;;;1.17;0.70;;;23.80;49.30;;;;;;6152326;28;80098;-69
2024/02/04 05:07:26;;;;;;;1.15;0.70;;;23.80;49.30;;;;;;6141617;28;80559;-68
2024/02/04 05:10:26;;;;;;;0.60;0.60;;;23.80;49.20;;;;;;6170092;28;80424;-47
2024/02/04 05:13:27;;;;;;;1.30;0.80;;;23.80;49.10;;;;;;6160901;28;81459;-51
2024/02/04 05:16:27;;;;;;;2.65;1.00;;;23.80;49.10;;;;;;6154560;28;82584;-48
2024/02/04 05:19:28;;;;;;;0.73;0.65;;;23.80;49.10;;;;;;6153266;28;80250;-49
2024/02/04 05:22:28;;;;;;;0.95;0.70;;;23.80;49.20;;;;;;6152353;28;80544;-50
2024/02/04 05:25:29;;;;;;;0.60;0.52;;;23.80;49.30;;;;;;6153379;28;80222;-46
2024/02/04 05:28:29;;;;;;;0.95;0.60;;;23.80;49.50;;;;;;6153773;28;80452;-51
2024/02/04 05:31:30;;;;;;;1.30;0.98;;;23.80;49.50;;;;;;6146262;28;80560;-50
2024/02/04 05:34:31;;;;;;;1.30;0.65;;;23.80;49.70;;;;;;6143727;28;81129;-54
2024/02/04 05:37:32;;;;;;;0.77;0.70;;;23.80;50.40;;;;;;6159576;28;81872;-52
2024/02/04 05:40:33;;;;;;;0.95;0.60;;;23.80;50.00;;;;;;6157697;28;82845;-50
2024/02/04 05:43:33;;;;;;;3.05;0.60;;;23.90;50.00;;;;;;6154499;28;80380;-53
2024/02/04 05:46:34;;;;;;;2.60;0.75;;;23.80;50.00;;;;;;6153122;28;80524;-53
2024/02/04 05:49:34;;;;;;;1.08;0.75;;;23.90;50.10;;;;;;6152208;28;80461;-54
2024/02/04 05:52:35;;;;;;;0.70;0.63;;;23.90;50.20;;;;;;6147785;28;81298;-55
2024/02/04 05:55:35;;;;;;;2.03;0.85;;;23.90;50.10;;;;;;6146318;28;80789;-50
2024/02/04 05:58:36;;;;;;;3.63;1.65;;;23.90;50.50;;;;;;6151463;28;82210;-50
2024/02/04 06:01:37;;;;;;;2.63;0.70;;;23.90;50.70;;;;;;6151883;28;82107;-52
2024/02/04 06:04:39;;;;;;;1.50;0.65;;;23.90;50.80;;;;;;6151963;28;82674;-52
2024/02/04 06:07:40;;;;;;;1.40;0.88;;;23.90;50.70;;;;;;6151212;28;81264;-53
2024/02/04 06:10:40;;;;;;;1.05;0.63;;;23.90;50.80;;;;;;6142538;28;80223;-51
2024/02/04 06:13:41;;;;;;;0.60;0.50;;;23.90;50.80;;;;;;6147811;28;80095;-49
2024/02/04 06:16:41;;;;;;;0.88;0.50;;;23.90;50.80;;;;;;6145689;28;80520;-53
2024/02/04 06:19:42;;;;;;;2.25;0.60;;;24.00;50.80;;;;;;6150101;28;80443;-51
2024/02/04 06:22:42;;;;;;;12.82;1.00;;;23.90;50.80;;;;;;6153573;28;80821;-50
2024/02/04 06:25:43;;;;;;;5.05;0.73;;;23.90;51.00;;;;;;6152736;28;80336;-45
2024/02/04 06:28:46;;;;;;;1.95;0.60;;;23.90;50.90;;;;;;6152263;28;80564;-49
2024/02/04 06:31:46;;;;;;;1.25;0.70;;;23.90;50.60;;;;;;6142925;28;81761;-48
2024/02/04 06:34:47;;;;;;;0.77;0.60;;;23.90;50.40;;;;;;6130254;28;86615;-46
2024/02/04 06:37:47;;;;;;;1.00;0.68;;;23.90;50.60;;;;;;6160244;28;80559;-47
2024/02/04 06:40:48;;;;;;;1.00;0.70;;;23.90;51.00;;;;;;6137015;28;83354;-49
2024/02/04 06:43:48;;;;;;;2.47;0.70;;;23.90;50.90;;;;;;6165071;28;80816;-62
2024/02/04 06:46:49;;;;;;;5.07;1.05;;;23.90;51.60;;;;;;6155898;28;85117;-66
2024/02/04 06:49:49;;;;;;;2.28;0.80;;;23.90;52.00;;;;;;6150986;28;81455;-66
2024/02/04 06:52:50;;;;;;;3.88;0.60;;;23.90;52.30;;;;;;6149007;28;81248;-66
2024/02/04 06:55:50;;;;;;;1.25;0.80;;;24.00;52.60;;;;;;6156787;28;80528;-64
2024/02/04 06:58:51;;;;;;;2.03;0.85;;;24.00;54.00;;;;;;6157857;28;81735;-67
2024/02/04 07:01:53;;;;;;;4.10;1.30;;;24.00;53.20;;;;;;6138802;28;84648;-65
2024/02/04 07:04:53;;;;;;;3.38;0.85;;;24.00;53.40;;;;;;6152122;28;81971;-64
2024/02/04 07:07:54;;;;;;;4.13;0.93;;;24.00;53.40;;;;;;6154628;28;80679;-63
2024/02/04 07:10:54;;;;;;;13.68;1.10;;;24.00;53.20;;;;;;6155322;28;81103;-67
2024/02/04 07:13:59;;;;;;;2.05;0.60;;;24.00;53.30;;;;;;6154798;28;83368;-60
2024/02/04 07:17:00;;;;;;;7.70;0.88;;;24.00;53.40;;;;;;6155752;28;80754;-62
2024/02/04 07:20:00;;;;;;;2.58;1.20;;;24.00;53.20;;;;;;6155630;28;80820;-56
2024/02/04 07:23:01;;;;;;;6.15;0.73;;;24.00;53.10;;;;;;6156002;28;80398;-48
2024/02/04 07:26:01;;;;;;;0.88;0.52;;;24.00;53.20;;;;;;6141286;28;80419;-50
2024/02/04 07:29:02;;;;;;;8.43;0.98;;;24.10;53.20;;;;;;6173732;28;86117;-49
2024/02/04 07:32:02;;;;;;;10.73;1.10;;;24.10;53.80;;;;;;6168544;28;80856;-47
2024/02/04 07:35:03;;;;;;;16.13;1.38;;;24.10;53.10;;;;;;6163081;28;80638;-56
2024/02/04 07:38:03;;;;;;;5.57;1.05;;;24.10;53.00;;;;;;6165313;28;80965;-52
2024/02/04 07:41:04;;;;;;;3.10;1.02;;;24.10;53.10;;;;;;6173640;28;80304;-52
2024/02/04 07:44:04;;;;;;;3.47;0.80;;;24.10;52.90;;;;;;6154656;28;80746;-56
2024/02/04 07:47:05;;;;;;;11.85;1.25;;;24.10;52.60;;;;;;6154920;28;80821;-55
2024/02/04 07:50:05;;;;;;;9.35;0.95;;;24.10;52.80;;;;;;6156243;28;80570;-53
2024/02/04 07:53:06;;;;;;;3.92;0.85;;;24.10;52.90;;;;;;6174377;28;80355;-55
2024/02/04 07:56:07;;;;;;;2.55;0.95;;;24.10;52.80;;;;;;6171251;28;82343;-53
2024/02/04 07:59:08;;;;;;;4.53;0.90;;;24.00;52.80;;;;;;6156937;28;80614;-52
2024/02/04 08:02:08;;;;;;;13.10;1.20;;;24.10;53.00;;;;;;6157160;28;83339;-50
2024/02/04 08:05:09;;;;;;;7.28;1.17;;;24.10;52.90;;;;;;6146191;28;83087;-52
2024/02/04 08:08:09;;;;;;;3.45;1.05;;;24.10;52.90;;;;;;6155596;28;80475;-52
2024/02/04 08:11:10;;;;;;;1.65;0.80;;;24.10;52.70;;;;;;6156452;28;80113;-51
2024/02/04 08:14:11;;;;;;;2.33;0.90;;;24.10;52.60;;;;;;6155742;28;80087;-52
2024/02/04 08:17:11;;;;;;;6.57;0.80;;;24.10;53.10;;;;;;6168327;28;86098;-50
2024/02/04 08:20:12;;;;;;;1.73;0.90;;;24.10;52.90;;;;;;6159424;28;87159;-54
2024/02/04 08:23:12;;;;;;;2.78;0.60;;;24.10;52.70;;;;;;6167271;28;80963;-48
2024/02/04 08:26:13;;;;;;;0.88;0.70;;;24.20;52.80;;;;;;6167651;28;80514;-51
2024/02/04 08:29:13;;;;;;;3.88;1.33;;;24.20;52.80;;;;;;6163547;28;81583;-52
2024/02/04 08:32:14;;;;;;;5.63;0.85;;;24.20;52.80;;;;;;6153453;28;81233;-55
2024/02/04 08:35:14;;;;;;;4.13;0.95;;;24.10;52.60;;;;;;6167281;28;85438;-55
2024/02/04 08:38:15;;;;;;;4.82;1.17;;;24.10;52.60;;;;;;6166151;28;86176;-55
2024/02/04 08:41:15;;;;;;;3.30;0.85;;;24.10;52.80;;;;;;6152796;28;80455;-57
2024/02/04 08:44:16;;;;;;;3.63;1.00;;;24.10;52.70;;;;;;6112691;28;1179785;-59
2024/02/04 08:47:17;;;;;;;5.60;0.77;;;24.10;52.50;;;;;;6154614;28;80660;-57
2024/02/04 08:50:17;;;;;;;1.67;0.93;;;24.10;52.80;;;;;;6159309;28;87432;-59
2024/02/04 08:53:18;;;;;;;3.40;0.75;;;24.10;52.20;;;;;;6166919;28;80274;-53
2024/02/04 08:56:18;;;;;;;2.63;0.88;;;24.00;51.80;;;;;;6159430;28;80836;-48
2024/02/04 08:59:19;;;;;;;1.08;0.70;;;24.10;52.00;;;;;;6161916;28;80513;-55
2024/02/04 09:02:19;;;;;;;5.00;1.10;;;24.10;51.90;;;;;;6169073;28;80761;-55
2024/02/04 09:05:20;;;;;;;3.33;1.05;;;24.10;52.00;;;;;;6168755;28;80067;-53
2024/02/04 09:08:20;;;;;;;5.38;0.98;;;24.10;51.90;;;;;;6171391;28;82651;-54
2024/02/04 09:11:21;;;;;;;7.20;0.90;;;24.10;51.70;;;;;;6158047;28;80589;-55
2024/02/04 09:14:22;;;;;;;2.22;1.25;;;24.10;51.50;;;;;;6148504;28;82145;-53
2024/02/04 09:17:22;;;;;;;5.35;1.17;;;24.00;51.40;;;;;;6155687;28;83029;-55
2024/02/04 09:20:23;;;;;;;3.40;1.10;;;24.00;51.20;;;;;;6169136;28;80115;-56
2024/02/04 09:23:23;;;;;;;2.80;0.93;;;24.00;50.90;;;;;;6158874;28;81075;-52
2024/02/04 09:26:24;;;;;;;1.67;0.80;;;24.00;51.10;;;;;;6156077;28;80949;-63
2024/02/04 09:29:24;;;;;;;5.05;1.00;;;24.00;50.90;;;;;;6153311;28;81178;-54
2024/02/04 09:32:25;;;;;;;3.40;1.10;;;24.00;50.80;;;;;;6156548;28;80822;-54
2024/02/04 09:35:25;;;;;;;4.80;1.30;;;23.90;50.70;;;;;;6155987;28;81924;-54
2024/02/04 09:38:26;;;;;;;5.05;1.10;;;23.90;50.60;;;;;;6155258;28;80230;-54
2024/02/04 09:41:26;;;;;;;1.88;1.20;;;24.00;50.60;;;;;;6165152;28;80763;-55
2024/02/04 09:44:27;;;;;;;6.63;1.23;;;24.00;50.60;;;;;;6154049;28;80256;-54
2024/02/04 09:47:27;;;;;;;1.95;1.00;;;23.90;50.70;;;;;;6156444;28;81169;-62
2024/02/04 09:50:28;;;;;;;2.15;1.08;;;23.90;50.90;;;;;;6155961;28;80340;-60
2024/02/04 09:53:28;;;;;;;1.75;1.13;;;23.90;50.70;;;;;;6178830;28;80527;-60
2024/02/04 09:56:29;;;;;;;2.03;0.98;;;24.00;50.80;;;;;;6156121;28;81179;-60
2024/02/04 09:59:31;;;;;;;2.05;0.90;;;24.00;50.70;;;;;;6156836;28;83758;-61
2024/02/04 10:02:32;;;;;;;2.25;1.00;;;24.00;50.30;;;;;;6168794;28;87350;-61
2024/02/04 10:05:32;;;;;;;2.45;1.25;;;24.00;50.60;;;;;;6174988;28;81410;-61
2024/02/04 10:08:33;;;;;;;2.35;1.23;;;24.00;50.40;;;;;;6176422;28;80353;-61
2024/02/04 10:11:33;;;;;;;2.58;1.15;;;24.00;50.50;;;;;;6175552;28;81562;-62
2024/02/04 10:14:34;;;;;;;1.33;0.95;;;24.10;50.00;;;;;;6175279;28;80355;-61
2024/02/04 10:17:34;;;;;;;1.85;1.00;;;24.10;50.20;;;;;;6174806;28;80442;-60
2024/02/04 10:20:35;;;;;;;3.13;1.20;;;24.10;49.90;;;;;;6176100;28;81268;-61
2024/02/04 10:23:35;;;;;;;2.35;1.10;;;24.20;49.80;;;;;;6174987;28;80287;-55
2024/02/04 10:26:37;;;;;;;2.15;1.00;;;24.20;49.80;;;;;;6171472;28;80698;-55
2024/02/04 10:29:37;;;;;;;1.65;1.17;;;24.20;50.10;;;;;;6173863;28;80511;-56
2024/02/04 10:32:38;;;;;;;3.30;1.10;;;24.20;49.80;;;;;;6158652;28;80533;-55
2024/02/04 10:35:39;;;;;;;3.05;0.98;;;24.20;49.80;;;;;;6157492;28;80978;-56
2024/02/04 10:38:42;;;;;;;3.45;1.40;;;24.20;49.40;;;;;;6156940;28;80421;-55
2024/02/04 10:41:43;;;;;;;2.72;1.80;;;24.30;49.40;;;;;;6150964;28;80815;-61
2024/02/04 10:44:43;;;;;;;1.77;1.35;;;24.30;49.20;;;;;;6153276;28;80844;-63
2024/02/04 10:47:44;;;;;;;1.75;1.13;;;24.30;48.90;;;;;;6154099;28;80184;-61
2024/02/04 10:50:46;;;;;;;2.25;1.20;;;24.40;49.00;;;;;;6154377;28;80433;-60
2024/02/04 10:53:46;;;;;;;2.17;1.05;;;24.40;49.10;;;;;;6164383;28;80498;-60
2024/02/04 10:56:47;;;;;;;2.47;1.17;;;24.50;49.00;;;;;;6154555;28;80319;-60
2024/02/04 10:59:47;;;;;;;2.85;1.48;;;24.50;48.70;;;;;;6161633;28;80483;-63
2024/02/04 11:02:49;;;;;;;2.05;1.10;;;24.50;48.80;;;;;;6177807;28;80837;-61
2024/02/04 11:05:49;;;;;;;1.58;1.20;;;24.50;49.40;;;;;;6177401;28;82473;-67
2024/02/04 11:08:50;;;;;;;3.17;1.58;;;24.50;48.90;;;;;;6175045;28;81270;-61
2024/02/04 11:11:50;;;;;;;2.45;1.25;;;24.50;49.40;;;;;;6177485;28;80082;-62
2024/02/04 11:14:51;;;;;;;4.28;1.02;;;24.50;49.60;;;;;;6174096;28;80337;-62
2024/02/04 11:17:51;;;;;;;4.25;1.20;;;24.50;49.80;;;;;;6176654;28;80451;-61
2024/02/04 11:20:52;;;;;;;2.95;1.05;;;24.50;49.30;;;;;;6169601;28;81093;-62
2024/02/04 11:23:52;;;;;;;1.55;1.20;;;24.50;49.00;;;;;;6163730;28;80471;-62
2024/02/04 11:26:53;;;;;;;2.75;1.30;;;24.50;49.10;;;;;;6153964;28;80437;-62
2024/02/04 11:29:53;;;;;;;1.42;1.13;;;24.50;49.60;;;;;;6167176;28;80803;-63
2024/02/04 11:32:54;;;;;;;4.10;1.38;;;24.50;49.50;;;;;;6168411;28;80622;-64
2024/02/04 11:35:54;;;;;;;3.35;1.55;;;24.60;49.30;;;;;;6175446;28;82449;-62
2024/02/04 11:38:55;;;;;;;2.85;1.27;;;24.60;49.30;;;;;;6158794;28;81702;-61
2024/02/04 11:41:55;;;;;;;1.92;1.23;;;24.60;49.60;;;;;;6167894;28;81479;-62
2024/02/04 11:44:56;;;;;;;1.63;1.27;;;24.70;49.50;;;;;;6179074;28;80521;-60
2024/02/04 11:47:56;;;;;;;1.80;1.00;;;24.70;49.60;;;;;;6179275;28;80786;-61
2024/02/04 11:50:57;;;;;;;5.70;1.42;;;24.70;49.90;;;;;;6171191;28;82894;-60
2024/02/04 11:53:58;;;;;;;8.55;1.38;;;24.70;50.10;;;;;;6172547;28;80518;-55
2024/02/04 11:56:58;;;;;;;4.00;1.20;;;24.70;50.30;;;;;;6161096;28;82997;-54
2024/02/04 12:00:00;;;;;;;4.03;1.27;;;24.70;50.70;;;;;;6173360;28;82071;-54
2024/02/04 12:03:01;;;;;;;3.35;1.55;;;24.70;51.00;;;;;;6166983;28;80339;-54
2024/02/04 12:06:02;;;;;;;8.10;1.73;;;24.70;51.20;;;;;;6171301;28;80196;-54
2024/02/04 12:09:04;;;;;;;4.80;1.85;;;24.70;51.80;;;;;;6171842;28;81393;-55
2024/02/04 12:12:04;;;;;;;9.55;1.77;;;24.70;51.80;;;;;;6170361;28;80568;-51
2024/02/04 12:15:05;;;;;;;3.42;1.67;;;24.70;51.70;;;;;;6175487;28;82564;-53
2024/02/04 12:18:06;;;;;;;8.50;1.90;;;24.70;52.30;;;;;;6174643;28;80327;-49
2024/02/04 12:21:06;;;;;;;6.38;1.65;;;24.60;52.40;;;;;;6172705;28;80736;-54
2024/02/04 12:24:07;;;;;;;3.97;1.33;;;24.60;52.20;;;;;;6173942;28;80390;-49
2024/02/04 12:27:07;;;;;;;3.67;1.48;;;24.60;51.90;;;;;;6173471;28;80946;-52
2024/02/04 12:30:08;;;;;;;2.85;1.25;;;24.60;52.10;;;;;;6175316;28;81285;-49
2024/02/04 12:33:09;;;;;;;3.38;1.10;;;24.60;52.10;;;;;;6168878;28;81149;-53
2024/02/04 12:36:09;;;;;;;7.90;1.40;;;24.60;52.10;;;;;;6177004;28;81106;-50
2024/02/04 12:39:11;;;;;;;7.43;1.70;;;24.60;51.90;;;;;;6162539;28;80488;-52
2024/02/04 12:42:12;;;;;;;2.88;1.30;;;24.50;51.70;;;;;;6153287;28;84019;-53
2024/02/04 12:45:12;;;;;;;5.15;1.60;;;24.50;51.40;;;;;;6155316;28;82442;-51
2024/02/04 12:48:13;;;;;;;4.65;1.55;;;24.50;51.30;;;;;;6168603;28;81525;-55
2024/02/04 12:51:14;;;;;;;3.50;1.50;;;24.40;51.30;;;;;;6162894;28;81766;-54
2024/02/04 12:54:14;;;;;;;3.42;1.67;;;24.40;51.60;;;;;;6177593;28;80315;-57
2024/02/04 12:57:15;;;;;;;2.50;1.50;;;24.40;51.50;;;;;;6165573;28;80573;-53
2024/02/04 13:00:15;;;;;;;3.97;1.70;;;24.40;51.30;;;;;;6146159;28;80538;-58
2024/02/04 13:03:16;;;;;;;6.40;2.47;;;24.30;51.40;;;;;;6153472;28;80784;-58
2024/02/04 13:06:16;;;;;;;10.48;3.25;;;24.30;51.40;;;;;;6149304;28;81022;-58
2024/02/04 13:09:17;;;;;;;13.32;3.22;;;24.20;51.10;;;;;;6154649;28;81424;-58
2024/02/04 13:12:18;;;;;;;15.38;4.70;;;24.20;50.90;;;;;;6155601;28;81334;-58
2024/02/04 13:15:18;;;;;;;41.92;9.30;;;24.20;51.10;;;;;;6154140;28;81503;-58
2024/02/04 13:18:19;;;;;;;49.58;12.55;;;24.10;51.50;;;;;;6153929;28;80794;-59
2024/02/04 13:21:21;;;;;;;47.38;11.70;;;24.00;51.50;;;;;;6153834;28;84074;-57
2024/02/04 13:24:22;;;;;;;36.85;10.77;;;24.00;50.80;;;;;;6151969;28;83593;-59
2024/02/04 13:27:22;;;;;;;42.65;11.25;;;24.10;50.50;;;;;;6148713;28;84567;-58
2024/02/04 13:30:23;;;;;;;43.20;11.43;;;24.00;51.90;;;;;;6142312;28;86551;-58
2024/02/04 13:33:23;;;;;;;41.65;10.52;;;24.00;50.90;;;;;;6153603;28;84212;-60
2024/02/04 13:36:24;;;;;;;45.58;10.82;;;23.90;51.60;;;;;;6143601;28;83660;-58
2024/02/04 13:39:24;;;;;;;28.30;8.63;;;23.80;51.90;;;;;;6149528;28;83617;-57
2024/02/04 13:42:25;;;;;;;28.05;8.75;;;23.80;52.10;;;;;;6150159;28;83330;-59
2024/02/04 13:45:26;;;;;;;28.25;7.53;;;23.80;53.10;;;;;;6155180;28;81889;-58
2024/02/04 13:48:26;;;;;;;20.98;6.63;;;23.80;53.10;;;;;;6155321;28;80613;-58
2024/02/04 13:51:26;;;;;;;20.27;5.55;;;23.70;52.00;;;;;;6151378;28;80862;-60
2024/02/04 13:54:27;;;;;;;15.30;6.18;;;23.70;51.40;;;;;;6154240;28;80848;-63
2024/02/04 13:57:27;;;;;;;16.65;5.50;;;23.80;51.50;;;;;;6146842;28;84603;-62
2024/02/04 14:00:28;;;;;;;19.20;5.20;;;23.90;51.60;;;;;;6157744;28;81279;-62
2024/02/04 14:03:28;;;;;;;15.57;5.25;;;23.90;51.90;;;;;;6165835;28;80945;-54
2024/02/04 14:06:29;;;;;;;13.32;5.38;;;23.90;51.60;;;;;;6169594;28;83042;-55
2024/02/04 14:09:30;;;;;;;14.93;4.97;;;23.90;51.30;;;;;;6172374;28;80844;-54
2024/02/04 14:12:31;;;;;;;15.02;5.10;;;24.00;51.30;;;;;;6165590;28;80370;-54
2024/02/04 14:15:32;;;;;;;24.83;5.03;;;24.00;51.20;;;;;;6162922;28;80602;-55
2024/02/04 14:18:32;;;;;;;15.35;4.43;;;24.00;51.20;;;;;;6154624;28;81074;-55
2024/02/04 14:21:33;;;;;;;10.52;4.60;;;24.00;51.20;;;;;;6156461;28;80971;-55
2024/02/04 14:24:33;;;;;;;12.27;4.22;;;24.00;51.60;;;;;;6155887;28;80934;-53
2024/02/04 14:27:34;;;;;;;11.50;4.10;;;24.10;51.70;;;;;;6168878;28;80756;-54
2024/02/04 14:30:34;;;;;;;11.35;4.40;;;24.10;51.70;;;;;;6160982;28;80774;-56
2024/02/04 14:33:35;;;;;;;10.65;4.70;;;24.10;51.70;;;;;;6151297;28;80426;-55
2024/02/04 14:36:35;;;;;;;9.63;3.80;;;24.00;51.80;;;;;;6157189;28;80572;-56
2024/02/04 14:39:36;;;;;;;9.68;4.10;;;24.10;51.80;;;;;;6156608;28;82423;-68
2024/02/04 14:42:36;;;;;;;11.75;3.45;;;24.10;51.70;;;;;;6165534;28;80963;-73
2024/02/04 14:45:37;;;;;;;10.60;3.78;;;24.20;51.60;;;;;;6168367;28;86699;-72
2024/02/04 14:48:37;;;;;;;9.68;4.07;;;24.20;51.50;;;;;;6159625;28;82369;-64
2024/02/04 14:51:38;;;;;;;9.15;4.03;;;24.20;51.40;;;;;;6146725;28;80505;-69
2024/02/04 14:54:39;;;;;;;6.40;3.40;;;24.20;51.30;;;;;;6141560;28;81271;-72
2024/02/04 14:57:39;;;;;;;10.88;4.35;;;24.20;51.20;;;;;;6149300;28;80690;-73
2024/02/04 15:00:40;;;;;;;8.02;3.78;;;24.30;51.20;;;;;;6143155;28;82224;-63
2024/02/04 15:03:40;;;;;;;9.85;3.08;;;24.20;51.40;;;;;;6142886;28;81067;-61
2024/02/04 15:06:41;;;;;;;10.10;3.28;;;24.20;51.60;;;;;;6146275;28;84519;-62
2024/02/04 15:09:41;;;;;;;5.78;3.03;;;24.20;51.90;;;;;;6146749;28;80763;-62
2024/02/04 15:12:43;;;;;;;10.02;3.20;;;24.20;52.10;;;;;;6160539;28;87386;-69
2024/02/04 15:15:43;;;;;;;5.60;3.10;;;24.30;52.40;;;;;;6162728;28;82251;-61
2024/02/04 15:18:44;;;;;;;5.57;3.30;;;24.30;52.40;;;;;;6150159;28;81025;-62
2024/02/04 15:21:45;;;;;;;4.97;2.95;;;24.20;52.30;;;;;;6152059;28;81582;-60
2024/02/04 15:24:46;;;;;;;6.63;3.10;;;24.20;52.50;;;;;;6150942;28;80709;-63
2024/02/04 15:27:46;;;;;;;8.35;3.50;;;24.20;52.70;;;;;;6152122;28;80661;-62
2024/02/04 15:30:47;;;;;;;6.50;2.90;;;24.20;52.60;;;;;;6150990;28;82048;-61
2024/02/04 15:33:47;;;;;;;6.90;3.17;;;24.20;52.60;;;;;;6148130;28;82130;-69
2024/02/04 15:36:48;;;;;;;9.20;2.88;;;24.30;52.50;;;;;;6150807;28;83260;-66